createdAt,value
2018-04-30T00:00:47.794Z,17.97
2018-04-30T00:01:48.014Z,17.86
2018-04-30T00:02:48.245Z,17.97
2018-04-30T00:03:48.478Z,17.82
2018-04-30T00:04:48.709Z,17.90
2018-04-30T00:05:48.934Z,17.80
2018-04-30T00:06:49.171Z,17.82
2018-04-30T00:07:49.397Z,17.79
2018-04-30T00:08:49.626Z,17.82
2018-04-30T00:09:49.857Z,17.74
2018-04-30T00:10:50.087Z,17.78
2018-04-30T00:11:50.311Z,17.80
2018-04-30T00:12:50.535Z,17.78
2018-04-30T00:13:50.776Z,17.78
2018-04-30T00:14:51.001Z,17.79
2018-04-30T00:15:51.232Z,17.74
2018-04-30T00:16:51.473Z,17.78
2018-04-30T00:17:51.688Z,17.72
2018-04-30T00:18:51.921Z,17.71
2018-04-30T00:19:52.153Z,17.64
2018-04-30T00:20:52.380Z,17.67
2018-04-30T00:21:52.618Z,17.71
2018-04-30T00:22:52.842Z,17.67
2018-04-30T00:23:53.070Z,17.64
2018-04-30T00:24:53.298Z,17.70
2018-04-30T00:25:53.531Z,17.71
2018-04-30T00:26:53.761Z,17.64
2018-04-30T00:27:53.991Z,17.67
2018-04-30T00:28:54.218Z,17.67
2018-04-30T00:29:54.445Z,17.76
2018-04-30T00:30:54.679Z,17.64
2018-04-30T00:31:54.909Z,17.67
2018-04-30T00:32:55.135Z,17.59
2018-04-30T00:33:55.388Z,17.70
2018-04-30T00:34:55.611Z,17.78
2018-04-30T00:35:55.838Z,17.78
2018-04-30T00:36:56.068Z,17.68
2018-04-30T00:37:56.302Z,17.65
2018-04-30T00:38:56.532Z,17.68
2018-04-30T00:39:56.759Z,17.71
2018-04-30T00:40:56.991Z,17.60
2018-04-30T00:41:57.225Z,17.59
2018-04-30T00:42:57.462Z,17.59
2018-04-30T00:43:57.684Z,17.67
2018-04-30T00:44:57.917Z,17.64
2018-04-30T00:45:58.146Z,17.54
2018-04-30T00:46:58.373Z,17.65
2018-04-30T00:47:58.601Z,17.59
2018-04-30T00:48:58.833Z,17.70
2018-04-30T00:49:59.063Z,17.68
2018-04-30T00:50:59.283Z,17.70
2018-04-30T00:51:59.507Z,17.68
2018-04-30T00:52:59.742Z,17.67
2018-04-30T00:53:59.969Z,17.68
2018-04-30T00:55:00.200Z,17.57
2018-04-30T00:56:00.427Z,17.48
2018-04-30T00:57:00.651Z,17.59
2018-04-30T00:58:00.890Z,17.51
2018-04-30T00:59:01.118Z,17.45
2018-04-30T01:00:01.344Z,17.52
2018-04-30T01:01:01.577Z,17.51
2018-04-30T01:02:01.804Z,17.46
2018-04-30T01:03:02.040Z,17.44
2018-04-30T01:04:02.259Z,17.46
2018-04-30T01:05:02.492Z,17.42
2018-04-30T01:06:02.733Z,17.45
2018-04-30T01:07:02.958Z,17.45
2018-04-30T01:08:03.190Z,17.45
2018-04-30T01:09:03.422Z,17.46
2018-04-30T01:10:03.655Z,17.42
2018-04-30T01:11:03.887Z,17.34
2018-04-30T01:12:04.115Z,17.38
2018-04-30T01:13:04.343Z,17.45
2018-04-30T01:14:04.575Z,17.42
2018-04-30T01:15:04.803Z,17.44
2018-04-30T01:16:05.036Z,17.51
2018-04-30T01:17:05.265Z,17.44
2018-04-30T01:18:05.495Z,17.42
2018-04-30T01:19:05.729Z,17.48
2018-04-30T01:20:05.953Z,17.45
2018-04-30T01:21:06.185Z,17.46
2018-04-30T01:22:06.419Z,17.57
2018-04-30T01:23:06.642Z,17.54
2018-04-30T01:24:06.871Z,17.46
2018-04-30T01:25:07.101Z,17.45
2018-04-30T01:26:07.330Z,17.36
2018-04-30T01:27:07.560Z,17.39
2018-04-30T01:28:07.790Z,17.42
2018-04-30T01:29:08.021Z,17.46
2018-04-30T01:30:08.250Z,17.52
2018-04-30T01:31:08.485Z,17.46
2018-04-30T01:32:08.712Z,17.42
2018-04-30T01:33:08.945Z,17.45
2018-04-30T01:34:09.170Z,17.46
2018-04-30T01:35:09.401Z,17.41
2018-04-30T01:36:09.632Z,17.46
2018-04-30T01:37:09.859Z,17.39
2018-04-30T01:38:10.092Z,17.24
2018-04-30T01:39:10.326Z,17.36
2018-04-30T01:40:10.546Z,17.39
2018-04-30T01:41:10.781Z,17.38
2018-04-30T01:42:11.010Z,17.24
2018-04-30T01:43:11.241Z,17.41
2018-04-30T01:44:11.472Z,17.36
2018-04-30T01:45:11.702Z,17.26
2018-04-30T01:46:11.932Z,17.22
2018-04-30T01:47:12.167Z,17.19
2018-04-30T01:48:12.391Z,17.27
2018-04-30T01:49:12.623Z,17.23
2018-04-30T01:50:12.856Z,17.08
2018-04-30T01:51:13.083Z,17.14
2018-04-30T01:52:13.312Z,16.99
2018-04-30T01:53:13.533Z,17.05
2018-04-30T01:54:13.781Z,16.94
2018-04-30T01:55:14.011Z,16.89
2018-04-30T01:56:14.241Z,16.96
2018-04-30T01:57:14.471Z,16.93
2018-04-30T01:58:14.701Z,17.01
2018-04-30T01:59:14.932Z,17.02
2018-04-30T02:00:15.163Z,16.90
2018-04-30T02:01:15.393Z,16.87
2018-04-30T02:02:15.627Z,16.79
2018-04-30T02:03:15.858Z,16.86
2018-04-30T02:04:16.085Z,16.79
2018-04-30T02:05:16.320Z,16.75
2018-04-30T02:06:16.548Z,16.71
2018-04-30T02:07:16.780Z,16.71
2018-04-30T02:08:17.040Z,16.61
2018-04-30T02:09:17.238Z,16.58
2018-04-30T02:10:17.469Z,16.61
2018-04-30T02:11:17.701Z,16.56
2018-04-30T02:12:17.927Z,16.50
2018-04-30T02:13:18.154Z,16.43
2018-04-30T02:14:18.383Z,16.39
2018-04-30T02:15:18.611Z,16.23
2018-04-30T02:16:18.842Z,16.15
2018-04-30T02:17:19.070Z,16.05
2018-04-30T02:18:19.298Z,16.12
2018-04-30T02:19:19.529Z,16.15
2018-04-30T02:20:19.759Z,16.12
2018-04-30T02:21:19.987Z,15.95
2018-04-30T02:22:20.218Z,15.98
2018-04-30T02:23:20.444Z,16.02
2018-04-30T02:24:20.674Z,16.10
2018-04-30T02:25:20.902Z,16.08
2018-04-30T02:26:21.133Z,16.15
2018-04-30T02:27:21.358Z,16.13
2018-04-30T02:28:21.588Z,16.15
2018-04-30T02:29:21.818Z,16.16
2018-04-30T02:30:22.043Z,16.16
2018-04-30T02:31:22.270Z,16.28
2018-04-30T02:32:22.507Z,16.24
2018-04-30T02:33:22.744Z,16.28
2018-04-30T02:34:22.966Z,16.38
2018-04-30T02:35:23.190Z,16.43
2018-04-30T02:36:23.410Z,16.53
2018-04-30T02:37:23.652Z,16.65
2018-04-30T02:38:23.880Z,16.51
2018-04-30T02:39:24.104Z,16.53
2018-04-30T02:40:24.339Z,16.76
2018-04-30T02:41:24.564Z,16.75
2018-04-30T02:42:24.795Z,16.83
2018-04-30T02:43:25.023Z,16.83
2018-04-30T02:44:25.250Z,16.87
2018-04-30T02:45:25.481Z,16.91
2018-04-30T02:46:25.712Z,17.01
2018-04-30T02:47:25.938Z,16.99
2018-04-30T02:48:26.172Z,17.02
2018-04-30T02:49:26.396Z,17.05
2018-04-30T02:50:26.624Z,17.04
2018-04-30T02:51:26.893Z,17.06
2018-04-30T02:52:27.081Z,17.11
2018-04-30T02:53:27.307Z,17.06
2018-04-30T02:54:27.544Z,17.11
2018-04-30T02:55:27.766Z,17.11
2018-04-30T02:56:28.006Z,17.04
2018-04-30T02:57:28.231Z,16.97
2018-04-30T02:58:28.465Z,16.96
2018-04-30T02:59:28.695Z,16.99
2018-04-30T03:00:28.922Z,17.02
2018-04-30T03:01:29.151Z,16.97
2018-04-30T03:02:29.383Z,16.96
2018-04-30T03:03:29.605Z,16.97
2018-04-30T03:04:29.833Z,16.90
2018-04-30T03:05:30.062Z,16.93
2018-04-30T03:06:30.291Z,16.91
2018-04-30T03:07:30.519Z,16.87
2018-04-30T03:08:30.748Z,16.94
2018-04-30T03:09:30.981Z,17.02
2018-04-30T03:10:31.205Z,16.96
2018-04-30T03:11:31.436Z,16.84
2018-04-30T03:12:31.676Z,16.91
2018-04-30T03:13:31.888Z,16.93
2018-04-30T03:14:32.114Z,16.96
2018-04-30T03:15:32.343Z,16.97
2018-04-30T03:16:32.574Z,17.02
2018-04-30T03:17:32.805Z,16.93
2018-04-30T03:18:33.032Z,17.04
2018-04-30T03:19:33.284Z,17.01
2018-04-30T03:20:33.512Z,16.97
2018-04-30T03:21:33.738Z,17.04
2018-04-30T03:22:33.964Z,17.09
2018-04-30T03:23:34.194Z,17.04
2018-04-30T03:24:34.423Z,17.11
2018-04-30T03:25:34.652Z,17.08
2018-04-30T03:26:34.882Z,17.06
2018-04-30T03:27:35.106Z,17.14
2018-04-30T03:28:35.336Z,17.14
2018-04-30T03:29:35.572Z,17.12
2018-04-30T03:30:35.792Z,17.14
2018-04-30T03:31:36.028Z,17.20
2018-04-30T03:32:36.257Z,17.16
2018-04-30T03:33:36.471Z,17.09
2018-04-30T03:34:36.705Z,17.12
2018-04-30T03:35:36.933Z,17.20
2018-04-30T03:36:37.158Z,17.16
2018-04-30T03:37:37.386Z,17.24
2018-04-30T03:38:37.615Z,17.26
2018-04-30T03:39:37.844Z,17.22
2018-04-30T03:40:38.076Z,17.20
2018-04-30T03:41:38.302Z,17.27
2018-04-30T03:42:38.533Z,17.30
2018-04-30T03:43:38.763Z,17.20
2018-04-30T03:44:38.992Z,17.22
2018-04-30T03:45:39.220Z,17.15
2018-04-30T03:46:39.448Z,17.19
2018-04-30T03:47:39.679Z,17.16
2018-04-30T03:48:39.907Z,17.16
2018-04-30T03:49:40.232Z,17.16
2018-04-30T03:50:40.363Z,17.23
2018-04-30T03:51:40.589Z,17.12
2018-04-30T03:52:40.816Z,17.16
2018-04-30T03:53:41.045Z,17.06
2018-04-30T03:54:41.274Z,16.94
2018-04-30T03:55:41.502Z,17.02
2018-04-30T03:56:41.730Z,17.05
2018-04-30T03:57:41.953Z,17.01
2018-04-30T03:58:42.181Z,16.94
2018-04-30T03:59:42.413Z,16.83
2018-04-30T04:00:42.644Z,16.79
2018-04-30T04:01:42.881Z,16.83
2018-04-30T04:02:43.098Z,16.81
2018-04-30T04:03:43.328Z,16.74
2018-04-30T04:04:43.558Z,16.79
2018-04-30T04:05:43.789Z,16.75
2018-04-30T04:06:44.024Z,16.74
2018-04-30T04:07:44.248Z,16.74
2018-04-30T04:08:44.479Z,16.72
2018-04-30T04:09:44.706Z,16.72
2018-04-30T04:10:44.933Z,16.75
2018-04-30T04:11:45.163Z,16.76
2018-04-30T04:12:45.462Z,16.87
2018-04-30T04:13:45.630Z,16.87
2018-04-30T04:14:45.853Z,16.78
2018-04-30T04:15:46.082Z,16.83
2018-04-30T04:16:46.311Z,16.79
2018-04-30T04:17:46.541Z,16.83
2018-04-30T04:18:46.763Z,16.81
2018-04-30T04:19:46.999Z,16.86
2018-04-30T04:20:47.221Z,16.86
2018-04-30T04:21:47.452Z,16.84
2018-04-30T04:22:47.681Z,16.72
2018-04-30T04:23:47.911Z,16.76
2018-04-30T04:24:48.142Z,16.84
2018-04-30T04:25:48.370Z,16.91
2018-04-30T04:26:48.599Z,16.93
2018-04-30T04:27:48.832Z,16.96
2018-04-30T04:28:49.062Z,16.91
2018-04-30T04:29:49.290Z,16.87
2018-04-30T04:30:49.529Z,16.86
2018-04-30T04:31:49.750Z,16.83
2018-04-30T04:32:49.987Z,16.84
2018-04-30T04:33:50.217Z,16.79
2018-04-30T04:34:50.448Z,16.78
2018-04-30T04:35:50.675Z,16.83
2018-04-30T04:36:50.908Z,16.79
2018-04-30T04:37:51.132Z,16.86
2018-04-30T04:38:51.362Z,16.78
2018-04-30T04:39:51.593Z,16.79
2018-04-30T04:40:51.823Z,16.68
2018-04-30T04:41:52.052Z,16.75
2018-04-30T04:42:52.280Z,16.71
2018-04-30T04:43:52.510Z,16.76
2018-04-30T04:44:52.741Z,16.86
2018-04-30T04:45:52.970Z,16.86
2018-04-30T04:46:53.271Z,16.79
2018-04-30T04:47:53.424Z,16.89
2018-04-30T04:48:53.655Z,16.86
2018-04-30T04:49:53.888Z,16.76
2018-04-30T04:50:54.115Z,16.87
2018-04-30T04:51:54.346Z,16.84
2018-04-30T04:52:54.571Z,16.81
2018-04-30T04:53:54.791Z,16.76
2018-04-30T04:54:55.017Z,16.84
2018-04-30T04:55:55.245Z,16.83
2018-04-30T04:56:55.474Z,16.86
2018-04-30T04:57:55.702Z,16.86
2018-04-30T04:58:55.932Z,16.91
2018-04-30T04:59:56.166Z,16.90
2018-04-30T05:00:56.404Z,16.94
2018-04-30T05:01:56.619Z,16.99
2018-04-30T05:02:56.857Z,17.06
2018-04-30T05:03:57.081Z,16.99
2018-04-30T05:04:57.311Z,17.04
2018-04-30T05:05:57.545Z,17.14
2018-04-30T05:06:57.777Z,17.15
2018-04-30T05:07:58.005Z,17.16
2018-04-30T05:08:58.241Z,17.08
2018-04-30T05:09:58.465Z,17.16
2018-04-30T05:10:58.784Z,17.08
2018-04-30T05:11:58.921Z,17.08
2018-04-30T05:12:59.152Z,17.09
2018-04-30T05:13:59.381Z,17.01
2018-04-30T05:14:59.612Z,17.12
2018-04-30T05:15:59.845Z,17.04
2018-04-30T05:17:00.068Z,17.02
2018-04-30T05:18:00.298Z,16.96
2018-04-30T05:19:00.530Z,16.94
2018-04-30T05:20:00.759Z,16.90
2018-04-30T05:21:01.012Z,16.86
2018-04-30T05:22:01.220Z,16.90
2018-04-30T05:23:01.451Z,16.89
2018-04-30T05:24:01.677Z,16.90
2018-04-30T05:25:01.905Z,16.84
2018-04-30T05:26:02.138Z,16.76
2018-04-30T05:27:02.372Z,16.75
2018-04-30T05:28:02.626Z,16.69
2018-04-30T05:29:02.831Z,16.76
2018-04-30T05:30:03.067Z,16.64
2018-04-30T05:31:03.284Z,16.57
2018-04-30T05:32:03.513Z,16.72
2018-04-30T05:33:03.735Z,16.71
2018-04-30T05:34:03.975Z,16.64
2018-04-30T05:35:04.204Z,16.66
2018-04-30T05:36:04.414Z,16.65
2018-04-30T05:37:04.638Z,16.65
2018-04-30T05:38:04.864Z,16.66
2018-04-30T05:39:05.088Z,16.56
2018-04-30T05:40:05.319Z,16.56
2018-04-30T05:41:05.542Z,16.68
2018-04-30T05:42:05.766Z,16.64
2018-04-30T05:43:05.994Z,16.65
2018-04-30T05:44:06.218Z,16.53
2018-04-30T05:45:06.476Z,16.54
2018-04-30T05:46:06.698Z,16.60
2018-04-30T05:47:06.917Z,16.53
2018-04-30T05:48:07.145Z,16.46
2018-04-30T05:49:07.367Z,16.38
2018-04-30T05:50:07.599Z,16.38
2018-04-30T05:51:07.813Z,16.39
2018-04-30T05:52:08.046Z,16.39
2018-04-30T05:53:08.277Z,16.41
2018-04-30T05:54:08.505Z,16.33
2018-04-30T05:55:08.747Z,16.33
2018-04-30T05:56:08.967Z,16.32
2018-04-30T05:57:09.191Z,16.29
2018-04-30T05:58:09.424Z,16.32
2018-04-30T05:59:09.651Z,16.23
2018-04-30T06:00:09.889Z,16.26
2018-04-30T06:01:10.109Z,16.29
2018-04-30T06:02:10.337Z,16.35
2018-04-30T06:03:10.569Z,16.31
2018-04-30T06:04:10.796Z,16.21
2018-04-30T06:05:11.030Z,16.28
2018-04-30T06:06:11.267Z,16.23
2018-04-30T06:07:11.474Z,16.16
2018-04-30T06:08:11.710Z,16.13
2018-04-30T06:09:11.947Z,16.16
2018-04-30T06:10:12.160Z,16.23
2018-04-30T06:11:12.385Z,16.10
2018-04-30T06:12:12.640Z,16.24
2018-04-30T06:13:12.842Z,16.23
2018-04-30T06:14:13.073Z,16.12
2018-04-30T06:15:13.332Z,16.17
2018-04-30T06:16:13.532Z,16.05
2018-04-30T06:17:13.761Z,16.20
2018-04-30T06:18:13.979Z,16.16
2018-04-30T06:19:14.228Z,16.16
2018-04-30T06:20:14.450Z,16.15
2018-04-30T06:21:14.676Z,16.24
2018-04-30T06:22:14.905Z,16.23
2018-04-30T06:23:15.135Z,16.26
2018-04-30T06:24:15.363Z,16.21
2018-04-30T06:25:15.593Z,16.36
2018-04-30T06:26:15.824Z,16.38
2018-04-30T06:27:16.052Z,16.31
2018-04-30T06:28:16.277Z,16.36
2018-04-30T06:29:16.510Z,16.42
2018-04-30T06:30:16.736Z,16.39
2018-04-30T06:31:16.965Z,16.38
2018-04-30T06:32:17.195Z,16.42
2018-04-30T06:33:17.424Z,16.32
2018-04-30T06:34:17.652Z,16.35
2018-04-30T06:35:17.878Z,16.43
2018-04-30T06:36:18.112Z,16.47
2018-04-30T06:37:18.335Z,16.60
2018-04-30T06:38:18.564Z,16.58
2018-04-30T06:39:18.795Z,16.69
2018-04-30T06:40:19.021Z,16.74
2018-04-30T06:41:19.253Z,16.71
2018-04-30T06:42:19.481Z,16.81
2018-04-30T06:43:19.713Z,16.91
2018-04-30T06:44:19.941Z,16.96
2018-04-30T06:45:20.171Z,16.96
2018-04-30T06:46:20.399Z,17.02
2018-04-30T06:47:20.630Z,17.11
2018-04-30T06:48:20.857Z,17.15
2018-04-30T06:49:21.085Z,17.19
2018-04-30T06:50:21.324Z,17.27
2018-04-30T06:51:21.547Z,17.44
2018-04-30T06:52:21.776Z,17.44
2018-04-30T06:53:22.010Z,17.44
2018-04-30T06:54:22.236Z,17.54
2018-04-30T06:55:22.466Z,17.65
2018-04-30T06:56:22.699Z,17.82
2018-04-30T06:57:22.924Z,17.92
2018-04-30T06:58:23.150Z,17.83
2018-04-30T06:59:23.381Z,17.71
2018-04-30T07:00:23.684Z,17.68
2018-04-30T07:01:23.848Z,17.72
2018-04-30T07:02:24.077Z,17.65
2018-04-30T07:03:24.299Z,17.64
2018-04-30T07:04:24.535Z,17.60
2018-04-30T07:05:24.761Z,17.60
2018-04-30T07:06:24.994Z,17.49
2018-04-30T07:07:25.227Z,17.56
2018-04-30T07:08:25.455Z,17.49
2018-04-30T07:09:25.814Z,17.52
2018-04-30T07:10:25.921Z,17.54
2018-04-30T07:11:26.151Z,17.52
2018-04-30T07:12:26.382Z,17.54
2018-04-30T07:13:26.613Z,17.70
2018-04-30T07:14:26.839Z,17.80
2018-04-30T07:15:27.066Z,17.79
2018-04-30T07:16:27.293Z,18.11
2018-04-30T07:17:27.525Z,18.07
2018-04-30T07:18:27.755Z,17.94
2018-04-30T07:19:27.984Z,18.08
2018-04-30T07:20:28.214Z,17.98
2018-04-30T07:21:28.460Z,17.82
2018-04-30T07:22:28.659Z,17.92
2018-04-30T07:23:28.897Z,17.95
2018-04-30T07:24:29.122Z,17.85
2018-04-30T07:25:29.355Z,17.83
2018-04-30T07:26:29.580Z,18.01
2018-04-30T07:27:29.808Z,17.98
2018-04-30T07:28:30.039Z,18.10
2018-04-30T07:29:30.264Z,18.15
2018-04-30T07:30:30.493Z,18.26
2018-04-30T07:31:30.720Z,18.11
2018-04-30T07:32:30.954Z,18.03
2018-04-30T07:33:31.178Z,17.83
2018-04-30T07:34:31.412Z,17.76
2018-04-30T07:35:31.644Z,17.71
2018-04-30T07:36:31.876Z,17.71
2018-04-30T07:37:32.103Z,17.56
2018-04-30T07:38:32.333Z,17.46
2018-04-30T07:39:32.565Z,17.34
2018-04-30T07:40:32.796Z,17.12
2018-04-30T07:41:33.029Z,17.14
2018-04-30T07:42:33.253Z,17.04
2018-04-30T07:43:33.484Z,17.01
2018-04-30T07:44:33.713Z,16.90
2018-04-30T07:45:33.944Z,16.87
2018-04-30T07:46:34.172Z,16.91
2018-04-30T07:47:34.408Z,16.87
2018-04-30T07:48:34.619Z,16.79
2018-04-30T07:49:34.859Z,16.84
2018-04-30T07:50:35.088Z,16.91
2018-04-30T07:51:35.313Z,16.89
2018-04-30T07:52:35.541Z,16.84
2018-04-30T07:53:35.775Z,16.74
2018-04-30T07:54:36.062Z,16.76
2018-04-30T07:55:36.222Z,16.71
2018-04-30T07:56:36.455Z,16.51
2018-04-30T07:57:36.680Z,16.71
2018-04-30T07:58:36.918Z,16.68
2018-04-30T07:59:37.136Z,16.66
2018-04-30T08:00:37.363Z,16.66
2018-04-30T08:01:37.594Z,16.69
2018-04-30T08:02:37.824Z,16.57
2018-04-30T08:03:38.052Z,16.69
2018-04-30T08:04:38.283Z,16.69
2018-04-30T08:05:38.511Z,16.60
2018-04-30T08:06:38.737Z,16.74
2018-04-30T08:07:38.973Z,16.78
2018-04-30T08:08:39.194Z,16.68
2018-04-30T08:09:39.445Z,16.66
2018-04-30T08:10:39.658Z,16.60
2018-04-30T08:11:39.907Z,16.65
2018-04-30T08:12:40.109Z,16.64
2018-04-30T08:13:40.345Z,16.60
2018-04-30T08:14:40.571Z,16.56
2018-04-30T08:15:40.801Z,16.68
2018-04-30T08:16:41.032Z,16.71
2018-04-30T08:17:41.269Z,16.64
2018-04-30T08:18:41.495Z,16.65
2018-04-30T08:19:41.722Z,16.66
2018-04-30T08:20:41.954Z,16.60
2018-04-30T08:21:42.183Z,16.58
2018-04-30T08:22:42.427Z,16.61
2018-04-30T08:23:42.635Z,16.68
2018-04-30T08:24:42.867Z,16.65
2018-04-30T08:25:43.100Z,16.71
2018-04-30T08:26:43.326Z,16.66
2018-04-30T08:27:43.556Z,16.64
2018-04-30T08:28:43.793Z,16.66
2018-04-30T08:29:44.004Z,16.54
2018-04-30T08:30:44.232Z,16.66
2018-04-30T08:31:44.462Z,16.60
2018-04-30T08:32:44.687Z,16.57
2018-04-30T08:33:44.920Z,16.54
2018-04-30T08:34:45.153Z,16.57
2018-04-30T08:35:45.383Z,16.43
2018-04-30T08:36:45.659Z,16.36
2018-04-30T08:37:45.842Z,16.39
2018-04-30T08:38:46.076Z,16.17
2018-04-30T08:39:46.311Z,16.28
2018-04-30T08:40:46.535Z,16.17
2018-04-30T08:41:46.764Z,16.17
2018-04-30T08:42:47.003Z,16.15
2018-04-30T08:43:47.231Z,16.12
2018-04-30T08:44:47.463Z,16.23
2018-04-30T08:45:47.687Z,16.13
2018-04-30T08:46:47.921Z,16.21
2018-04-30T08:47:48.145Z,16.24
2018-04-30T08:48:48.376Z,16.33
2018-04-30T08:49:48.634Z,16.39
2018-04-30T08:50:48.834Z,16.33
2018-04-30T08:51:49.073Z,16.50
2018-04-30T08:52:49.290Z,16.49
2018-04-30T08:53:49.520Z,16.50
2018-04-30T08:54:49.749Z,16.43
2018-04-30T08:55:49.985Z,16.46
2018-04-30T08:56:50.212Z,16.61
2018-04-30T08:57:50.435Z,16.66
2018-04-30T08:58:50.665Z,16.68
2018-04-30T08:59:50.895Z,16.64
2018-04-30T09:00:51.125Z,16.60
2018-04-30T09:01:51.350Z,16.66
2018-04-30T09:02:51.580Z,16.71
2018-04-30T09:03:51.801Z,16.66
2018-04-30T09:04:52.028Z,16.64
2018-04-30T09:05:52.256Z,16.69
2018-04-30T09:06:52.490Z,16.69
2018-04-30T09:07:52.719Z,16.78
2018-04-30T09:08:52.949Z,16.90
2018-04-30T09:09:53.173Z,17.02
2018-04-30T09:10:53.395Z,16.99
2018-04-30T09:11:53.637Z,16.94
2018-04-30T09:12:53.868Z,17.01
2018-04-30T09:13:54.107Z,17.06
2018-04-30T09:14:54.386Z,17.06
2018-04-30T09:15:54.557Z,17.15
2018-04-30T09:16:54.784Z,17.04
2018-04-30T09:17:55.013Z,16.93
2018-04-30T09:18:55.252Z,16.94
2018-04-30T09:19:55.473Z,16.91
2018-04-30T09:20:55.697Z,17.01
2018-04-30T09:21:55.926Z,16.94
2018-04-30T09:22:56.158Z,17.02
2018-04-30T09:23:56.466Z,17.04
2018-04-30T09:24:56.617Z,17.12
2018-04-30T09:25:56.842Z,17.09
2018-04-30T09:26:57.070Z,17.01
2018-04-30T09:27:57.296Z,17.01
2018-04-30T09:28:57.531Z,16.99
2018-04-30T09:29:57.756Z,16.94
2018-04-30T09:30:57.992Z,16.91
2018-04-30T09:31:58.218Z,17.02
2018-04-30T09:32:58.442Z,17.23
2018-04-30T09:33:58.671Z,17.24
2018-04-30T09:34:58.912Z,17.34
2018-04-30T09:35:59.133Z,17.27
2018-04-30T09:36:59.364Z,17.30
2018-04-30T09:37:59.591Z,17.26
2018-04-30T09:38:59.816Z,17.23
2018-04-30T09:40:00.049Z,17.29
2018-04-30T09:41:00.278Z,17.31
2018-04-30T09:42:00.512Z,17.39
2018-04-30T09:43:00.742Z,17.45
2018-04-30T09:44:00.968Z,17.41
2018-04-30T09:45:01.192Z,17.42
2018-04-30T09:46:01.418Z,17.54
2018-04-30T09:47:01.637Z,17.68
2018-04-30T09:48:01.867Z,17.78
2018-04-30T09:49:02.095Z,17.85
2018-04-30T09:50:02.330Z,17.98
2018-04-30T09:51:02.559Z,18.04
2018-04-30T09:52:02.783Z,18.15
2018-04-30T09:53:03.019Z,18.29
2018-04-30T09:54:03.253Z,18.20
2018-04-30T09:55:03.486Z,18.11
2018-04-30T09:56:03.708Z,18.11
2018-04-30T09:57:03.938Z,18.08
2018-04-30T09:58:04.180Z,18.08
2018-04-30T09:59:04.408Z,18.10
2018-04-30T10:00:04.642Z,18.18
2018-04-30T10:01:04.865Z,18.11
2018-04-30T10:02:05.094Z,18.11
2018-04-30T10:03:05.327Z,18.16
2018-04-30T10:04:05.560Z,18.23
2018-04-30T10:05:05.789Z,18.28
2018-04-30T10:06:06.017Z,18.26
2018-04-30T10:07:06.251Z,18.45
2018-04-30T10:08:06.482Z,18.45
2018-04-30T10:09:06.710Z,18.44
2018-04-30T10:10:06.940Z,18.40
2018-04-30T10:11:07.180Z,18.41
2018-04-30T10:12:07.399Z,18.50
2018-04-30T10:13:07.626Z,18.62
2018-04-30T10:14:07.860Z,18.55
2018-04-30T10:15:08.094Z,18.65
2018-04-30T10:16:08.332Z,18.73
2018-04-30T10:17:08.545Z,18.93
2018-04-30T10:18:08.775Z,18.95
2018-04-30T10:19:09.007Z,19.11
2018-04-30T10:20:09.235Z,19.19
2018-04-30T10:21:09.466Z,19.21
2018-04-30T10:22:09.702Z,19.15
2018-04-30T10:23:09.924Z,19.09
2018-04-30T10:24:10.158Z,19.12
2018-04-30T10:25:10.399Z,19.21
2018-04-30T10:26:10.620Z,19.30
2018-04-30T10:27:10.854Z,19.31
2018-04-30T10:28:11.075Z,19.39
2018-04-30T10:29:11.394Z,19.27
2018-04-30T10:30:11.535Z,19.24
2018-04-30T10:31:11.765Z,19.18
2018-04-30T10:32:11.996Z,19.04
2018-04-30T10:33:12.230Z,18.96
2018-04-30T10:34:12.495Z,18.90
2018-04-30T10:35:12.940Z,18.73
2018-04-30T10:36:12.940Z,18.77
2018-04-30T10:37:13.178Z,18.73
2018-04-30T10:38:13.400Z,18.71
2018-04-30T10:39:13.633Z,18.62
2018-04-30T10:40:13.864Z,18.75
2018-04-30T10:41:14.097Z,18.98
2018-04-30T10:42:14.332Z,19.19
2018-04-30T10:43:14.559Z,19.26
2018-04-30T10:44:14.789Z,19.29
2018-04-30T10:45:15.019Z,19.26
2018-04-30T10:46:15.245Z,19.21
2018-04-30T10:47:15.480Z,18.90
2018-04-30T10:48:15.708Z,18.78
2018-04-30T10:49:15.942Z,18.92
2018-04-30T10:50:16.179Z,18.95
2018-04-30T10:51:16.407Z,18.99
2018-04-30T10:52:16.638Z,19.12
2018-04-30T10:53:16.859Z,19.15
2018-04-30T10:54:17.092Z,19.00
2018-04-30T10:55:17.333Z,19.08
2018-04-30T10:56:17.555Z,19.09
2018-04-30T10:57:17.792Z,19.29
2018-04-30T10:58:18.020Z,19.22
2018-04-30T10:59:18.254Z,19.22
2018-04-30T11:00:18.482Z,19.19
2018-04-30T11:01:18.711Z,19.21
2018-04-30T11:02:18.942Z,19.18
2018-04-30T11:03:19.179Z,19.15
2018-04-30T11:04:19.399Z,19.09
2018-04-30T11:05:19.625Z,19.12
2018-04-30T11:06:19.869Z,19.22
2018-04-30T11:07:20.104Z,19.24
2018-04-30T11:08:20.340Z,19.37
2018-04-30T11:09:20.574Z,19.45
2018-04-30T11:10:20.808Z,19.37
2018-04-30T11:11:21.051Z,19.49
2018-04-30T11:12:21.362Z,19.67
2018-04-30T11:13:21.501Z,19.88
2018-04-30T11:14:21.740Z,19.82
2018-04-30T11:15:21.981Z,19.79
2018-04-30T11:16:22.211Z,19.85
2018-04-30T11:17:22.447Z,19.79
2018-04-30T11:18:22.677Z,19.81
2018-04-30T11:19:22.911Z,19.81
2018-04-30T11:20:23.140Z,19.84
2018-04-30T11:21:23.377Z,20.00
2018-04-30T11:22:23.608Z,20.06
2018-04-30T11:23:23.836Z,20.19
2018-04-30T11:24:24.066Z,20.39
2018-04-30T11:25:24.298Z,20.40
2018-04-30T11:26:24.532Z,20.24
2018-04-30T11:27:24.760Z,20.31
2018-04-30T11:28:25.007Z,20.32
2018-04-30T11:29:25.236Z,20.03
2018-04-30T11:30:25.466Z,20.07
2018-04-30T11:31:25.704Z,20.16
2018-04-30T11:32:25.928Z,20.24
2018-04-30T11:33:26.153Z,20.29
2018-04-30T11:34:26.387Z,20.28
2018-04-30T11:35:26.614Z,20.25
2018-04-30T11:36:26.846Z,20.22
2018-04-30T11:37:27.077Z,20.31
2018-04-30T11:38:27.311Z,20.25
2018-04-30T11:39:27.542Z,20.18
2018-04-30T11:40:27.777Z,20.26
2018-04-30T11:41:28.006Z,20.25
2018-04-30T11:42:28.242Z,20.24
2018-04-30T11:43:28.468Z,20.13
2018-04-30T11:44:28.698Z,20.19
2018-04-30T11:45:28.937Z,20.28
2018-04-30T11:46:29.160Z,20.21
2018-04-30T11:47:29.396Z,20.03
2018-04-30T11:48:29.620Z,20.21
2018-04-30T11:49:29.856Z,20.28
2018-04-30T11:50:30.093Z,20.22
2018-04-30T11:51:30.326Z,20.32
2018-04-30T11:52:30.557Z,20.31
2018-04-30T11:53:30.788Z,20.39
2018-04-30T11:54:31.025Z,20.37
2018-04-30T11:55:31.255Z,20.26
2018-04-30T11:56:31.484Z,20.39
2018-04-30T11:57:31.718Z,20.29
2018-04-30T11:58:31.952Z,20.32
2018-04-30T11:59:32.190Z,20.32
2018-04-30T12:00:32.420Z,20.48
2018-04-30T12:01:32.655Z,20.62
2018-04-30T12:02:32.897Z,20.69
2018-04-30T12:03:33.118Z,20.72
2018-04-30T12:04:33.350Z,20.87
2018-04-30T12:05:33.589Z,20.80
2018-04-30T12:06:33.816Z,20.90
2018-04-30T12:07:34.048Z,20.97
2018-04-30T12:08:34.282Z,20.88
2018-04-30T12:09:34.514Z,20.65
2018-04-30T12:10:34.744Z,20.59
2018-04-30T12:11:34.985Z,20.58
2018-04-30T12:12:35.220Z,20.60
2018-04-30T12:13:35.460Z,20.59
2018-04-30T12:14:35.689Z,20.51
2018-04-30T12:15:35.934Z,20.65
2018-04-30T12:16:36.221Z,20.59
2018-04-30T12:17:36.398Z,20.84
2018-04-30T12:18:36.634Z,20.87
2018-04-30T12:19:36.862Z,20.74
2018-04-30T12:20:37.091Z,20.63
2018-04-30T12:21:37.331Z,20.59
2018-04-30T12:22:37.571Z,20.59
2018-04-30T12:23:37.806Z,20.62
2018-04-30T12:24:38.026Z,20.65
2018-04-30T12:25:38.257Z,20.78
2018-04-30T12:26:38.490Z,20.90
2018-04-30T12:27:38.755Z,20.93
2018-04-30T12:28:38.963Z,21.06
2018-04-30T12:29:39.217Z,20.90
2018-04-30T12:30:39.422Z,20.77
2018-04-30T12:31:39.653Z,20.95
2018-04-30T12:32:39.884Z,21.02
2018-04-30T12:33:40.115Z,20.78
2018-04-30T12:34:40.355Z,20.63
2018-04-30T12:35:40.584Z,20.62
2018-04-30T12:36:40.817Z,20.63
2018-04-30T12:37:41.049Z,20.81
2018-04-30T12:38:41.277Z,20.75
2018-04-30T12:39:41.511Z,20.74
2018-04-30T12:40:41.738Z,20.90
2018-04-30T12:41:41.972Z,20.75
2018-04-30T12:42:42.205Z,20.96
2018-04-30T12:43:42.445Z,20.93
2018-04-30T12:44:42.666Z,20.88
2018-04-30T12:45:42.889Z,20.88
2018-04-30T12:46:43.122Z,20.85
2018-04-30T12:47:43.357Z,20.97
2018-04-30T12:48:43.594Z,20.88
2018-04-30T12:49:43.864Z,20.81
2018-04-30T12:50:44.087Z,20.77
2018-04-30T12:51:44.290Z,20.74
2018-04-30T12:52:44.516Z,20.60
2018-04-30T12:53:44.750Z,20.47
2018-04-30T12:54:44.981Z,20.39
2018-04-30T12:55:45.212Z,20.43